PITTSFIELD MILLS DAM SUNCOOK RIVER PITTSFIELD, NH: From 01/10/2019 02:00 to 01/24/2019 11:00

Date PRECIPITATION INCREMENT [IN] WATER TEMPERATURE [F] AIR TEMPERATURE [F] POOL ELEVATION [FT] RESERVOIR RELEASE [CFS]
01/24/2019 04:00 -- -- -- -- 241.0
01/24/2019 03:00 0.06 32.5 34.0 475.07 241.5
01/24/2019 02:00 0.05 32.5 34.0 475.07 242.0
01/24/2019 01:00 0.02 32.5 36.0 475.07 244.0
01/24/2019 00:00 0.00 32.5 37.0 475.08 246.0
01/23/2019 23:00 0.00 32.5 37.0 475.08 247.3
01/23/2019 22:00 0.00 32.5 37.0 475.08 249.0
01/23/2019 21:00 0.00 32.5 37.0 475.09 251.0
01/23/2019 20:00 0.00 32.5 36.0 475.09 253.5
01/23/2019 19:00 0.00 32.5 37.0 475.09 254.0
01/23/2019 18:00 0.00 32.5 34.0 475.09 256.0
01/23/2019 17:00 0.00 32.5 32.0 475.10 258.5
01/23/2019 16:00 0.00 32.5 33.0 475.10 260.0
01/23/2019 15:00 0.00 32.5 34.0 475.10 258.0
01/23/2019 14:00 0.00 32.5 34.0 475.10 255.5
01/23/2019 13:00 0.00 32.5 32.0 475.09 253.0
01/23/2019 12:00 0.00 32.5 30.0 475.09 249.5
01/23/2019 11:00 0.00 32.5 27.0 475.08 246.8
01/23/2019 10:00 0.00 32.5 24.0 475.07 244.5
01/23/2019 09:00 0.00 32.5 21.0 475.07 243.0
01/23/2019 08:00 0.00 32.5 19.0 475.07 242.0
01/23/2019 07:00 0.00 32.5 15.0 475.07 242.0
01/23/2019 06:00 0.00 32.5 13.0 475.07 241.0
01/23/2019 05:00 0.00 32.5 12.0 475.07 237.0
01/23/2019 04:00 0.00 32.5 11.0 475.06 235.5
01/23/2019 03:00 0.00 32.5 12.0 475.06 236.0
01/23/2019 02:00 0.00 32.5 12.0 475.06 236.0
01/23/2019 01:00 0.00 32.5 14.0 475.06 236.0
01/23/2019 00:00 0.00 32.5 15.0 475.06 236.0
01/22/2019 23:00 0.00 32.5 15.0 475.06 236.0
01/22/2019 22:00 0.00 32.5 15.0 475.06 235.0
01/22/2019 21:00 0.00 32.5 16.0 475.06 236.0
01/22/2019 20:00 0.00 32.5 14.0 475.06 234.5
01/22/2019 19:00 0.00 32.5 15.0 475.06 234.0
01/22/2019 18:00 0.00 32.5 16.0 475.06 234.0
01/22/2019 17:00 0.00 32.5 18.0 475.06 237.5
01/22/2019 16:00 0.00 32.5 21.0 475.07 241.5
01/22/2019 15:00 0.00 32.5 21.0 475.07 239.0
01/22/2019 14:00 0.00 32.5 20.0 475.06 231.0
01/22/2019 13:00 0.00 32.5 18.0 475.04 222.5
01/22/2019 12:00 0.00 32.5 15.0 475.03 213.5
01/22/2019 11:00 0.00 32.5 11.0 475.01 205.0
01/22/2019 10:00 0.00 32.5 9.0 474.99 196.8
01/22/2019 09:00 0.00 32.5 6.0 474.99 195.5
01/22/2019 08:00 0.00 32.5 2.0 474.98 195.8
01/22/2019 07:00 0.00 32.5 1.0 474.99 195.5
01/22/2019 06:00 0.00 32.5 2.0 474.99 190.3
01/22/2019 05:00 0.00 32.5 1.0 474.98 185.0
01/22/2019 04:00 0.00 32.5 1.0 474.96 184.0
01/22/2019 03:00 0.00 32.5 1.0 474.98 181.3
01/22/2019 02:00 0.00 32.5 2.0 474.96 174.5
01/22/2019 01:00 0.00 32.5 2.0 474.95 175.8
01/22/2019 00:00 0.00 32.5 2.0 474.95 179.3
01/21/2019 23:00 0.00 32.5 2.0 474.95 175.8
01/21/2019 22:00 0.00 32.5 1.0 474.95 175.3
01/21/2019 21:00 0.00 32.5 0.0 474.95 177.5
01/21/2019 20:00 0.00 32.5 0.0 474.96 175.3
01/21/2019 19:00 0.00 32.5 -1.0 474.96 175.3
01/21/2019 18:00 0.00 32.5 -1.0 474.96 172.8
01/21/2019 17:00 0.00 32.5 -1.0 474.88 161.8
01/21/2019 16:00 0.00 32.5 -1.0 474.94 167.8
01/21/2019 15:00 0.00 32.5 0.0 474.94 166.3
01/21/2019 14:00 0.00 32.5 0.0 474.93 164.0
01/21/2019 13:00 0.00 32.5 0.0 474.91 157.5
01/21/2019 12:00 0.00 32.5 -1.0 474.91 150.3
01/21/2019 11:00 0.00 32.5 -2.0 474.90 145.8
01/21/2019 10:00 0.00 32.5 -2.0 474.90 144.3
01/21/2019 09:00 0.00 32.5 -2.0 474.88 138.5
01/21/2019 08:00 0.00 32.5 -2.0 474.87 134.5
01/21/2019 07:00 0.00 32.5 -1.0 474.86 131.5
01/21/2019 06:00 0.00 32.5 -1.0 474.86 130.3
01/21/2019 05:00 0.00 32.5 -2.0 474.84 121.3
01/21/2019 04:00 0.00 32.5 -2.0 474.85 122.8
01/21/2019 03:00 0.00 32.5 -1.0 474.85 125.0
01/21/2019 02:00 0.00 32.5 -1.0 474.85 127.0
01/21/2019 01:00 0.00 32.5 0.0 474.86 128.8
01/21/2019 00:00 0.00 32.5 1.0 474.87 129.8
01/20/2019 23:00 0.00 32.5 3.0 474.86 129.0
01/20/2019 22:00 0.00 32.5 4.0 474.86 130.5
01/20/2019 21:00 0.00 32.5 6.0 474.87 133.3
01/20/2019 20:00 0.00 32.5 12.0 474.87 134.3
01/20/2019 19:00 0.00 32.5 18.0 474.86 130.5
01/20/2019 18:00 0.00 32.7 20.0 474.87 131.8
01/20/2019 17:00 0.00 32.7 19.0 474.86 129.5
01/20/2019 16:00 0.00 32.7 18.0 474.86 129.3
01/20/2019 15:00 0.00 32.7 16.0 474.86 130.0
01/20/2019 14:00 0.00 32.7 14.0 474.86 123.0
01/20/2019 13:00 0.00 32.7 14.0 474.85 123.3
01/20/2019 12:00 0.00 32.7 13.0 474.84 121.3
01/20/2019 11:00 0.00 32.7 13.0 474.84 118.8
01/20/2019 10:00 0.00 32.7 12.0 474.83 117.3
01/20/2019 09:00 0.00 32.7 11.0 474.83 113.8
01/20/2019 08:00 0.00 32.9 11.0 474.84 120.3
01/20/2019 07:00 0.00 32.7 10.0 474.86 124.0
01/20/2019 06:00 0.00 32.9 11.0 474.85 123.3
01/20/2019 05:00 0.00 32.9 12.0 474.83 120.8
01/20/2019 04:00 0.00 32.9 12.0 474.85 127.3
01/20/2019 03:00 0.00 32.9 13.0 474.86 127.0
01/20/2019 02:00 0.00 32.9 14.0 474.85 126.8
01/20/2019 01:00 0.00 32.7 14.0 474.86 127.5
01/20/2019 00:00 0.00 32.9 14.0 474.86 126.5
01/19/2019 23:00 0.00 32.9 14.0 474.86 127.8
01/19/2019 22:00 0.00 32.7 16.0 474.86 128.0
01/19/2019 21:00 0.00 32.7 18.0 474.86 127.5
01/19/2019 20:00 0.00 32.7 21.0 474.86 129.3
01/19/2019 19:00 0.00 32.7 22.0 474.86 129.5
01/19/2019 18:00 0.00 32.7 22.0 474.86 130.0
01/19/2019 17:00 0.00 32.7 24.0 474.86 130.0
01/19/2019 16:00 0.00 32.7 25.0 474.86 131.5
01/19/2019 15:00 0.00 32.7 25.0 474.87 132.0
01/19/2019 14:00 0.00 32.7 25.0 474.87 132.3
01/19/2019 13:00 0.00 32.7 24.0 474.87 132.0
01/19/2019 12:00 0.00 32.7 23.0 474.87 133.0
01/19/2019 11:00 0.00 32.7 23.0 474.87 135.0
01/19/2019 10:00 0.00 32.7 22.0 474.87 134.0
01/19/2019 09:00 0.00 32.7 20.0 474.87 132.0
01/19/2019 08:00 0.00 32.7 19.0 474.87 132.0
01/19/2019 07:00 0.00 32.7 18.0 474.87 132.5
01/19/2019 06:00 0.00 32.7 20.0 474.87 134.5
01/19/2019 05:00 0.00 32.7 22.0 474.88 135.5
01/19/2019 04:00 0.00 32.7 24.0 474.87 136.3
01/19/2019 03:00 0.00 32.7 26.0 474.88 136.5
01/19/2019 02:00 0.00 32.7 24.0 474.88 137.0
01/19/2019 01:00 0.00 32.7 25.0 474.88 137.3
01/19/2019 00:00 0.00 32.7 25.0 474.88 137.3
01/18/2019 23:00 0.00 32.7 25.0 474.88 138.0
01/18/2019 22:00 0.00 32.7 25.0 474.88 139.0
01/18/2019 21:00 0.00 32.7 24.0 474.88 140.0
01/18/2019 20:00 0.00 32.7 24.0 474.89 142.0
01/18/2019 19:00 0.00 32.7 28.0 474.89 142.8
01/18/2019 18:00 0.00 32.7 30.0 474.89 143.0
01/18/2019 17:00 0.00 32.7 30.0 474.89 143.0
01/18/2019 16:00 0.00 32.7 31.0 474.89 142.0
01/18/2019 15:00 0.00 32.7 31.0 474.88 134.3
01/18/2019 14:00 0.00 32.7 30.0 474.85 108.5
01/18/2019 13:00 0.00 32.5 29.0 474.74 117.0
01/18/2019 12:00 0.00 32.5 27.0 474.66 128.8
01/18/2019 11:00 0.00 32.5 22.0 474.66 126.8
01/18/2019 10:00 0.00 32.5 20.0 474.66 128.0
01/18/2019 09:00 0.00 32.5 18.0 474.66 128.8
01/18/2019 08:00 0.00 32.5 17.0 474.66 128.8
01/18/2019 07:00 0.00 32.5 17.0 474.66 127.5
01/18/2019 06:00 0.00 32.5 15.0 474.66 129.0
01/18/2019 05:00 0.00 32.5 16.0 474.67 130.5
01/18/2019 04:00 0.00 32.7 17.0 474.67 130.8
01/18/2019 03:00 0.00 32.7 17.0 474.67 131.0
01/18/2019 02:00 0.00 32.7 16.0 474.67 131.5
01/18/2019 01:00 0.00 32.7 15.0 474.67 131.3
01/18/2019 00:00 0.00 32.9 15.0 474.67 132.0
01/17/2019 23:00 0.00 32.9 15.0 474.67 133.0
01/17/2019 22:00 0.00 32.9 14.0 474.68 134.3
01/17/2019 21:00 0.00 32.9 14.0 474.68 136.0
01/17/2019 20:00 0.00 32.9 15.0 474.69 138.0
01/17/2019 19:00 0.00 32.9 15.0 474.69 139.0
01/17/2019 18:00 0.00 32.9 15.0 474.70 140.5
01/17/2019 17:00 0.00 32.9 19.0 474.70 144.8
01/17/2019 16:00 0.00 32.9 20.0 474.71 149.0
01/17/2019 15:00 0.00 32.9 20.0 474.72 153.5
01/17/2019 14:00 0.00 32.7 20.0 474.73 154.8
01/17/2019 13:00 0.00 32.7 18.0 474.73 153.0
01/17/2019 12:00 0.00 32.5 15.0 474.71 146.5
01/17/2019 11:00 0.00 32.5 13.0 474.71 143.3
01/17/2019 10:00 0.00 32.5 11.0 474.69 137.0
01/17/2019 09:00 0.00 32.5 8.0 474.68 134.3
01/17/2019 08:00 0.00 32.5 5.0 474.68 135.5
01/17/2019 07:00 0.00 32.5 6.0 474.68 135.8
01/17/2019 06:00 0.00 32.7 7.0 474.68 135.5
01/17/2019 05:00 0.00 32.7 8.0 474.68 135.5
01/17/2019 04:00 0.00 32.7 10.0 474.68 136.8
01/17/2019 03:00 0.00 32.7 12.0 474.69 138.8
01/17/2019 02:00 0.00 32.7 13.0 474.69 141.0
01/17/2019 01:00 0.00 32.7 16.0 474.70 143.5
01/17/2019 00:00 0.00 32.7 18.0 474.70 144.5
01/16/2019 23:00 0.00 32.7 23.0 474.71 148.3
01/16/2019 22:00 0.00 32.7 27.0 474.72 152.0
01/16/2019 21:00 0.00 32.7 29.0 474.72 153.5
01/16/2019 20:00 0.00 32.7 32.0 474.73 155.0
01/16/2019 19:00 0.00 32.7 33.0 474.73 157.0
01/16/2019 18:00 0.00 32.7 33.0 474.73 160.5
01/16/2019 17:00 0.00 32.7 34.0 474.75 165.0
01/16/2019 16:00 0.00 32.7 35.0 474.75 168.8
01/16/2019 15:00 0.00 32.7 36.0 474.76 171.0
01/16/2019 14:00 0.00 32.7 34.0 474.77 173.3
01/16/2019 13:00 0.00 32.5 33.0 474.77 173.5
01/16/2019 12:00 0.00 32.5 31.0 474.77 172.8
01/16/2019 11:00 0.00 32.5 28.0 474.76 170.0
01/16/2019 10:00 0.00 32.5 26.0 474.76 168.3
01/16/2019 09:00 0.00 32.5 24.0 474.75 166.0
01/16/2019 08:00 0.00 32.5 19.0 474.75 165.5
01/16/2019 07:00 0.00 32.5 18.0 474.75 164.8
01/16/2019 06:00 0.00 32.5 15.0 474.75 163.0
01/16/2019 05:00 0.00 32.5 15.0 474.74 163.5
01/16/2019 04:00 0.00 32.5 16.0 474.75 164.5
01/16/2019 03:00 0.00 32.5 17.0 474.75 166.8
01/16/2019 02:00 0.00 32.7 19.0 474.76 170.5
01/16/2019 01:00 0.00 32.7 22.0 474.77 171.8
01/16/2019 00:00 0.00 32.7 21.0 474.77 172.0
01/15/2019 23:00 0.00 32.7 21.0 474.77 171.5
01/15/2019 22:00 0.00 32.7 20.0 474.76 171.3
01/15/2019 21:00 0.00 32.7 19.0 474.76 171.8
01/15/2019 20:00 0.00 32.9 20.0 474.77 175.8
01/15/2019 19:00 0.00 32.9 23.0 474.78 181.0
01/15/2019 18:00 0.00 32.9 25.0 474.79 187.8
01/15/2019 17:00 0.00 32.9 28.0 474.81 196.5
01/15/2019 16:00 0.00 32.9 31.0 474.83 207.5
01/15/2019 15:00 0.00 32.7 31.0 474.85 216.3
01/15/2019 14:00 0.00 32.7 31.0 474.86 220.0
01/15/2019 13:00 0.00 32.5 30.0 474.87 221.5
01/15/2019 12:00 0.00 32.5 30.0 474.87 218.0
01/15/2019 11:00 0.00 32.5 29.0 474.86 212.0
01/15/2019 10:00 0.00 32.5 25.0 474.84 201.5
01/15/2019 09:00 0.00 32.5 18.0 474.82 192.5
01/15/2019 08:00 0.00 32.5 10.0 474.81 190.8
01/15/2019 07:00 0.00 32.5 9.0 474.81 190.8
01/15/2019 06:00 0.00 32.5 10.0 474.80 188.8
01/15/2019 05:00 0.00 32.5 9.0 474.80 187.8
01/15/2019 04:00 0.00 32.5 8.0 474.80 188.3
01/15/2019 03:00 0.00 32.5 9.0 474.80 189.0
01/15/2019 02:00 0.00 32.5 10.0 474.80 189.0
01/15/2019 01:00 0.00 32.7 10.0 474.80 190.0
01/15/2019 00:00 0.00 32.7 11.0 474.80 190.5
01/14/2019 23:00 0.00 32.7 13.0 474.81 192.3
01/14/2019 22:00 0.00 32.7 14.0 474.81 195.0
01/14/2019 21:00 0.00 32.7 15.0 474.82 197.0
01/14/2019 20:00 0.00 32.9 17.0 474.82 201.8
01/14/2019 19:00 0.00 32.9 18.0 474.84 207.5
01/14/2019 18:00 0.00 32.9 21.0 474.85 215.0
01/14/2019 17:00 0.00 32.9 25.0 474.87 224.3
01/14/2019 16:00 0.00 32.9 29.0 474.89 235.8
01/14/2019 15:00 0.00 32.9 30.0 474.91 243.5
01/14/2019 14:00 0.00 32.7 29.0 474.92 250.0
01/14/2019 13:00 0.00 32.5 26.0 474.92 247.5
01/14/2019 12:00 0.00 32.5 24.0 474.91 240.8
01/14/2019 11:00 0.00 32.5 19.0 474.90 229.3
01/14/2019 10:00 0.00 32.5 14.0 474.87 216.5
01/14/2019 09:00 0.00 32.5 6.0 474.84 206.3
01/14/2019 08:00 0.00 32.5 1.0 474.83 203.0
01/14/2019 07:00 0.00 32.5 1.0 474.83 202.5
01/14/2019 06:00 0.00 32.5 1.0 474.83 203.5
01/14/2019 05:00 0.00 32.5 2.0 474.83 202.0
01/14/2019 04:00 0.00 32.5 2.0 474.83 202.0
01/14/2019 03:00 0.00 32.5 3.0 474.83 203.5
01/14/2019 02:00 0.00 32.5 4.0 474.83 203.5
01/14/2019 01:00 0.00 32.7 5.0 474.83 203.0
01/14/2019 00:00 0.00 32.7 6.0 474.83 202.0
01/13/2019 23:00 0.00 32.7 7.0 474.83 201.0
01/13/2019 22:00 0.00 32.7 8.0 474.83 201.0
01/13/2019 21:00 0.00 32.7 10.0 474.83 202.5
01/13/2019 20:00 0.00 32.9 11.0 474.83 205.3
01/13/2019 19:00 0.00 32.9 14.0 474.84 209.5
01/13/2019 18:00 0.00 32.9 16.0 474.85 215.8
01/13/2019 17:00 0.00 32.9 21.0 474.87 224.0
01/13/2019 16:00 0.00 32.9 27.0 474.89 234.3
01/13/2019 15:00 0.00 32.9 26.0 474.90 242.0
01/13/2019 14:00 0.00 32.7 23.0 474.91 244.5
01/13/2019 13:00 0.00 32.5 22.0 474.91 242.5
01/13/2019 12:00 0.00 32.5 18.0 474.90 234.8
01/13/2019 11:00 0.00 32.5 16.0 474.88 223.0
01/13/2019 10:00 0.00 32.5 13.0 474.86 211.0
01/13/2019 09:00 0.00 32.4 8.0 474.84 203.8
01/13/2019 08:00 0.00 32.4 3.0 474.83 202.0
01/13/2019 07:00 0.00 32.4 3.0 474.83 202.0
01/13/2019 06:00 0.00 32.5 4.0 474.83 203.0
01/13/2019 05:00 0.00 32.5 5.0 474.83 203.5
01/13/2019 04:00 0.00 32.5 6.0 474.83 204.0
01/13/2019 03:00 0.00 32.5 7.0 474.83 201.5
01/13/2019 02:00 0.00 32.5 6.0 474.82 199.0
01/13/2019 01:00 0.00 32.5 7.0 474.82 198.5
01/13/2019 00:00 0.00 32.7 9.0 474.82 196.0
01/12/2019 23:00 0.00 32.7 11.0 474.82 194.3
01/12/2019 22:00 0.00 32.7 11.0 474.82 194.3
01/12/2019 21:00 0.00 32.7 13.0 474.81 193.0
01/12/2019 20:00 0.00 32.7 13.0 474.81 194.0
01/12/2019 19:00 0.00 32.9 14.0 474.81 194.8
01/12/2019 18:00 0.00 32.9 15.0 474.82 195.5
01/12/2019 17:00 0.00 32.9 16.0 474.82 199.8
01/12/2019 16:00 0.00 32.9 18.0 474.84 204.3
01/12/2019 15:00 0.00 32.9 19.0 474.85 212.5
01/12/2019 14:00 0.00 32.7 17.0 474.85 213.3
01/12/2019 13:00 0.00 32.5 17.0 474.85 209.8
01/12/2019 12:00 0.00 32.5 15.0 474.83 198.3
01/12/2019 11:00 0.00 32.5 12.0 474.81 188.5
01/12/2019 10:00 0.00 32.4 10.0 474.79 182.5
01/12/2019 09:00 0.00 32.4 8.0 474.78 178.8
01/12/2019 08:00 0.00 32.4 4.0 474.78 179.5
01/12/2019 07:00 0.00 32.4 5.0 474.78 180.8
01/12/2019 06:00 0.00 32.4 5.0 474.79 183.0
01/12/2019 05:00 0.00 32.4 5.0 474.79 186.0
01/12/2019 04:00 0.00 32.5 5.0 474.80 187.8
01/12/2019 03:00 0.00 32.5 5.0 474.80 189.5
01/12/2019 02:00 0.00 32.5 5.0 474.81 192.3
01/12/2019 01:00 0.00 32.5 6.0 474.81 194.8
01/12/2019 00:00 0.00 32.5 6.0 474.82 197.5
01/11/2019 23:00 0.00 32.7 6.0 474.82 201.3
01/11/2019 22:00 0.00 32.7 6.0 474.83 202.0
01/11/2019 21:00 0.00 32.7 7.0 474.83 204.5
01/11/2019 20:00 0.00 32.7 7.0 474.84 208.3
01/11/2019 19:00 0.00 32.7 10.0 474.86 216.3
01/11/2019 18:00 0.00 32.7 13.0 474.87 221.0
01/11/2019 17:00 0.00 32.9 14.0 474.87 222.0
01/11/2019 16:00 0.00 32.9 17.0 474.87 221.0
01/11/2019 15:00 0.00 32.9 18.0 474.88 224.5
01/11/2019 14:00 0.00 32.7 18.0 474.88 224.8
01/11/2019 13:00 0.00 32.7 17.0 474.87 222.0
01/11/2019 12:00 0.00 32.7 17.0 474.85 210.0
01/11/2019 11:00 0.00 32.7 17.0 474.86 207.3
01/11/2019 10:00 0.00 32.7 16.0 474.84 207.8
01/11/2019 09:00 0.00 32.7 14.0 474.84 205.8
01/11/2019 08:00 0.00 32.7 13.0 474.84 207.3
01/11/2019 07:00 0.00 32.9 14.0 474.84 209.8
01/11/2019 06:00 0.00 32.9 13.0 474.85 216.0
01/11/2019 05:00 0.00 32.9 14.0 474.86 220.5
01/11/2019 04:00 0.00 33.1 14.0 474.86 220.3
01/11/2019 03:00 0.00 33.1 15.0 474.87 226.0
01/11/2019 02:00 0.00 33.3 16.0 474.88 223.5
01/11/2019 01:00 0.00 33.3 17.0 474.89 230.3
01/11/2019 00:00 0.00 33.4 17.0 474.89 234.5
01/10/2019 23:00 0.00 33.4 18.0 474.90 237.0
01/10/2019 22:00 0.00 33.4 19.0 474.91 241.8
01/10/2019 21:00 0.00 33.6 19.0 474.91 243.0
01/10/2019 20:00 0.00 33.6 21.0 474.91 243.0
01/10/2019 19:00 0.00 33.6 22.0 474.91 243.5
01/10/2019 18:00 0.00 33.6 22.0 474.92 246.5
01/10/2019 17:00 0.00 33.6 23.0 474.91 244.8
01/10/2019 16:00 0.00 33.6 25.0 474.91 247.3
01/10/2019 15:00 0.00 33.6 25.0 474.90 239.8
01/10/2019 14:00 0.00 33.6 27.0 474.93 255.0
01/10/2019 13:00 0.00 33.4 28.0 474.94 253.5
01/10/2019 12:00 0.00 33.4 29.0 474.92 252.5
01/10/2019 11:00 0.00 33.4 29.0 474.93 254.0
01/10/2019 10:00 0.00 33.4 29.0 474.92 254.0
01/10/2019 09:00 0.00 33.4 28.0 474.93 255.0
01/10/2019 08:00 0.00 33.4 27.0 474.93 255.5
01/10/2019 07:00 0.00 33.4 28.0 474.93 256.0
01/10/2019 06:00 0.00 33.4 28.0 474.93 257.5
01/10/2019 05:00 0.00 33.4 29.0 474.93 257.0
01/10/2019 04:00 -- -- -- -- --
01/10/2019 03:00 -- -- -- -- --
01/10/2019 02:00 -- -- -- -- --